Time;durP1;ratioP1;P1;durP2;ratioP2;P2;SDS_P1;SDS_P2;PMS_P1;PMS_P2;Temp;Humidity;BMP_temperature;BMP_pressure;BME280_temperature;BME280_humidity;BME280_pressure;Samples;Min_cycle;Max_cycle;Signal;HPM_P1;HPM_P2
2023/04/12 00:00:34;;;;;;;1.30;0.33;;;;;;;;;;5110230;28;20297;-75
2023/04/12 00:03:02;;;;;;;2.57;0.30;;;;;;;;;;5110475;28;20198;-75
2023/04/12 00:05:29;;;;;;;2.73;0.40;;;;;;;;;;5127600;28;20201;-75
2023/04/12 00:07:57;;;;;;;2.10;0.20;;;;;;;;;;5110410;27;20556;-76
2023/04/12 00:10:25;;;;;;;1.33;0.30;;;;;;;;;;5097358;28;20193;-75
2023/04/12 00:12:52;;;;;;;3.07;0.60;;;;;;;;;;5110069;28;20632;-75
2023/04/12 00:15:20;;;;;;;2.73;0.47;;;;;;;;;;5109892;28;20257;-75
2023/04/12 00:17:47;;;;;;;2.03;0.50;;;;;;;;;;5110488;28;20749;-75
2023/04/12 00:20:15;;;;;;;3.60;0.43;;;;;;;;;;5108308;28;20194;-74
2023/04/12 00:22:42;;;;;;;1.97;0.50;;;;;;;;;;5090509;28;20282;-75
2023/04/12 00:25:10;;;;;;;4.87;0.60;;;;;;;;;;5100513;28;20201;-75
2023/04/12 00:27:39;;;;;;;1.27;0.40;;;;;;;;;;5113576;28;20368;-75
2023/04/12 00:30:07;;;;;;;3.10;0.70;;;;;;;;;;5111868;28;20231;-75
2023/04/12 00:32:34;;;;;;;1.40;0.60;;;;;;;;;;5113825;28;20201;-75
2023/04/12 00:35:01;;;;;;;3.20;0.70;;;;;;;;;;5103222;28;20213;-75
2023/04/12 00:37:28;;;;;;;2.93;0.50;;;;;;;;;;5114506;27;20208;-75
2023/04/12 00:39:56;;;;;;;3.73;0.87;;;;;;;;;;5113145;28;20232;-76
2023/04/12 00:42:23;;;;;;;2.53;0.73;;;;;;;;;;5114317;28;20280;-75
2023/04/12 00:44:51;;;;;;;4.07;0.83;;;;;;;;;;5113492;27;20295;-76
2023/04/12 00:47:19;;;;;;;4.13;0.80;;;;;;;;;;5114700;28;20717;-75
2023/04/12 00:49:46;;;;;;;3.00;0.70;;;;;;;;;;5113865;28;20195;-74
2023/04/12 00:52:14;;;;;;;10.63;1.07;;;;;;;;;;5095881;28;20289;-75
2023/04/12 00:54:42;;;;;;;3.40;0.83;;;;;;;;;;5106267;28;20294;-75
2023/04/12 00:57:09;;;;;;;3.50;0.80;;;;;;;;;;5112185;28;20294;-75
2023/04/12 00:59:36;;;;;;;5.03;1.03;;;;;;;;;;5113140;28;20245;-75
2023/04/12 01:02:06;;;;;;;5.07;0.80;;;;;;;;;;5099192;28;20938;-76
2023/04/12 01:04:36;;;;;;;2.97;0.57;;;;;;;;;;5111659;28;20233;-74
2023/04/12 01:07:08;;;;;;;4.13;0.80;;;;;;;;;;5113414;28;20905;-74
2023/04/12 01:09:43;;;;;;;3.60;0.80;;;;;;;;;;5113164;28;20197;-74
2023/04/12 01:12:15;;;;;;;2.90;0.83;;;;;;;;;;5101808;28;20648;-75
2023/04/12 01:14:47;;;;;;;4.63;0.90;;;;;;;;;;5112394;28;20280;-75
2023/04/12 01:17:23;;;;;;;3.80;0.70;;;;;;;;;;5113578;28;20226;-74
2023/04/12 01:19:56;;;;;;;3.53;1.00;;;;;;;;;;5112147;28;20304;-75
2023/04/12 01:22:37;;;;;;;4.97;0.70;;;;;;;;;;5112101;28;20189;-75
2023/04/12 01:25:11;;;;;;;5.23;0.80;;;;;;;;;;5112690;28;20202;-75
2023/04/12 01:27:43;;;;;;;3.33;0.90;;;;;;;;;;5112147;28;20288;-75
2023/04/12 01:30:12;;;;;;;2.57;0.77;;;;;;;;;;5103609;28;21390;-75
2023/04/12 01:32:40;;;;;;;4.53;0.80;;;;;;;;;;5107788;28;20235;-75
2023/04/12 01:35:08;;;;;;;4.43;1.00;;;;;;;;;;5112173;28;20695;-74
2023/04/12 01:37:36;;;;;;;5.27;1.10;;;;;;;;;;5111816;28;20196;-76
2023/04/12 01:40:04;;;;;;;6.23;0.70;;;;;;;;;;5112235;28;20308;-76
2023/04/12 01:42:32;;;;;;;4.67;1.00;;;;;;;;;;5112550;28;20194;-75
2023/04/12 01:45:00;;;;;;;4.97;1.10;;;;;;;;;;5101114;28;20790;-75
2023/04/12 01:47:28;;;;;;;4.63;0.70;;;;;;;;;;5104454;28;20750;-75
2023/04/12 01:50:00;;;;;;;3.77;0.70;;;;;;;;;;5100945;28;20286;-75
2023/04/12 01:52:31;;;;;;;4.27;0.70;;;;;;;;;;5092956;28;20206;-75
2023/04/12 01:54:59;;;;;;;3.67;0.80;;;;;;;;;;5097296;28;20301;-75
2023/04/12 01:57:27;;;;;;;3.27;0.73;;;;;;;;;;5100029;28;20256;-75
2023/04/12 01:59:55;;;;;;;3.57;0.70;;;;;;;;;;5103032;28;20199;-75
2023/04/12 02:02:24;;;;;;;3.97;0.80;;;;;;;;;;5112403;28;20285;-76
2023/04/12 02:04:52;;;;;;;1.73;0.50;;;;;;;;;;5110975;28;20236;-74
2023/04/12 02:07:19;;;;;;;2.53;0.57;;;;;;;;;;5112805;28;20202;-75
2023/04/12 02:09:46;;;;;;;2.40;0.70;;;;;;;;;;5112534;28;20198;-74
2023/04/12 02:12:14;;;;;;;3.83;0.67;;;;;;;;;;5111765;28;20288;-75
2023/04/12 02:14:41;;;;;;;3.43;0.80;;;;;;;;;;5100841;28;20243;-75
2023/04/12 02:17:08;;;;;;;3.33;0.90;;;;;;;;;;5108203;28;20291;-74
2023/04/12 02:19:36;;;;;;;4.93;1.00;;;;;;;;;;5111412;28;20197;-75
2023/04/12 02:22:04;;;;;;;3.43;1.00;;;;;;;;;;5100401;28;20287;-75
2023/04/12 02:24:32;;;;;;;4.43;1.23;;;;;;;;;;5103529;28;20210;-75
2023/04/12 02:27:00;;;;;;;5.10;0.90;;;;;;;;;;5112027;28;20199;-75
2023/04/12 02:29:27;;;;;;;4.33;1.10;;;;;;;;;;5109797;28;20297;-76
2023/04/12 02:31:54;;;;;;;3.13;1.20;;;;;;;;;;5110393;28;20292;-74
2023/04/12 02:34:22;;;;;;;4.17;1.10;;;;;;;;;;5092717;28;20226;-75
2023/04/12 02:36:50;;;;;;;5.80;1.03;;;;;;;;;;5114431;27;20217;-74
2023/04/12 02:39:18;;;;;;;6.03;0.80;;;;;;;;;;5132390;27;20288;-75
2023/04/12 02:41:45;;;;;;;2.37;0.73;;;;;;;;;;5111365;28;20343;-75
2023/04/12 02:44:12;;;;;;;2.70;0.83;;;;;;;;;;5111775;28;20201;-74
2023/04/12 02:46:39;;;;;;;5.03;0.83;;;;;;;;;;5102606;28;20225;-75
2023/04/12 02:49:06;;;;;;;5.00;0.80;;;;;;;;;;5110805;28;20291;-75
2023/04/12 02:51:34;;;;;;;3.10;0.73;;;;;;;;;;5110499;28;20246;-75
2023/04/12 02:54:02;;;;;;;3.67;0.73;;;;;;;;;;5111203;28;20203;-76
2023/04/12 02:56:29;;;;;;;2.00;0.70;;;;;;;;;;5109396;28;20275;-74
2023/04/12 02:58:57;;;;;;;2.87;0.87;;;;;;;;;;5108701;28;20211;-75
2023/04/12 03:01:24;;;;;;;5.60;1.07;;;;;;;;;;5110997;28;20313;-76
2023/04/12 03:03:51;;;;;;;2.83;0.70;;;;;;;;;;5110475;28;20226;-75
2023/04/12 03:06:18;;;;;;;2.90;1.10;;;;;;;;;;5111377;28;20660;-75
2023/04/12 03:08:45;;;;;;;2.97;0.80;;;;;;;;;;5110885;28;20307;-75
2023/04/12 03:11:14;;;;;;;4.47;0.70;;;;;;;;;;5111032;28;20199;-75
2023/04/12 03:13:41;;;;;;;3.67;0.90;;;;;;;;;;5110206;28;20195;-75
2023/04/12 03:16:22;;;;;;;5.87;1.10;;;;;;;;;;5111143;28;20325;-75
2023/04/12 03:18:50;;;;;;;3.83;0.90;;;;;;;;;;5110488;28;20235;-75
2023/04/12 03:21:17;;;;;;;4.70;0.90;;;;;;;;;;5110782;28;20731;-74
2023/04/12 03:23:45;;;;;;;5.97;1.00;;;;;;;;;;5110994;28;20198;-76
2023/04/12 03:26:12;;;;;;;5.43;1.47;;;;;;;;;;5110425;28;20208;-75
2023/04/12 03:28:41;;;;;;;4.63;1.10;;;;;;;;;;5110264;28;20204;-75
2023/04/12 03:31:09;;;;;;;4.30;1.07;;;;;;;;;;5094378;28;20770;-74
2023/04/12 03:33:36;;;;;;;4.97;1.10;;;;;;;;;;5110741;28;20193;-75
2023/04/12 03:36:04;;;;;;;5.57;1.13;;;;;;;;;;5110725;28;20717;-75
2023/04/12 03:38:31;;;;;;;4.33;1.37;;;;;;;;;;5110708;28;20666;-74
2023/04/12 03:40:58;;;;;;;3.07;1.10;;;;;;;;;;5105843;28;20264;-74
2023/04/12 03:43:26;;;;;;;5.63;1.27;;;;;;;;;;5110065;28;20247;-75
2023/04/12 03:45:54;;;;;;;4.20;1.07;;;;;;;;;;5110755;28;20205;-75
2023/04/12 03:48:21;;;;;;;6.10;1.20;;;;;;;;;;5111398;28;20205;-74
2023/04/12 03:50:53;;;;;;;3.17;0.87;;;;;;;;;;5109778;28;20322;-75
2023/04/12 03:53:20;;;;;;;4.33;1.00;;;;;;;;;;5110768;28;20195;-75
2023/04/12 03:55:47;;;;;;;3.43;1.40;;;;;;;;;;5110216;28;20199;-75
2023/04/12 03:58:17;;;;;;;6.03;1.30;;;;;;;;;;5110772;28;20235;-75
2023/04/12 04:00:45;;;;;;;5.77;1.57;;;;;;;;;;5110368;28;20657;-74
2023/04/12 04:03:14;;;;;;;4.80;1.13;;;;;;;;;;5114502;28;20204;-75
2023/04/12 04:05:41;;;;;;;4.73;1.07;;;;;;;;;;5114796;28;20195;-75
2023/04/12 04:08:08;;;;;;;5.77;1.10;;;;;;;;;;5114115;28;20606;-74
2023/04/12 04:10:36;;;;;;;6.77;1.00;;;;;;;;;;5115036;27;20213;-75
2023/04/12 04:13:03;;;;;;;3.90;1.33;;;;;;;;;;5115685;28;20194;-75
2023/04/12 04:15:31;;;;;;;4.37;0.93;;;;;;;;;;5113541;28;20688;-75
2023/04/12 04:17:58;;;;;;;2.80;0.90;;;;;;;;;;5113996;28;20221;-75
2023/04/12 04:20:27;;;;;;;6.77;1.10;;;;;;;;;;5114142;28;20226;-75
2023/04/12 04:22:54;;;;;;;4.83;1.90;;;;;;;;;;5114114;28;20292;-75
2023/04/12 04:25:22;;;;;;;4.43;1.47;;;;;;;;;;5113425;28;20282;-76
2023/04/12 04:27:49;;;;;;;5.10;1.03;;;;;;;;;;5114910;28;20697;-75
2023/04/12 04:30:17;;;;;;;4.57;0.80;;;;;;;;;;5113075;28;20203;-75
2023/04/12 04:32:44;;;;;;;3.33;1.23;;;;;;;;;;5112157;28;20190;-75
2023/04/12 04:35:15;;;;;;;4.83;1.00;;;;;;;;;;5113316;28;20298;-78
2023/04/12 04:37:44;;;;;;;5.63;1.17;;;;;;;;;;5113695;28;20229;-77
2023/04/12 04:40:11;;;;;;;5.00;1.33;;;;;;;;;;5098286;28;20253;-77
2023/04/12 04:42:38;;;;;;;4.67;1.60;;;;;;;;;;5113931;28;20197;-77
2023/04/12 04:45:12;;;;;;;4.27;1.97;;;;;;;;;;5113316;28;20288;-77
2023/04/12 04:47:39;;;;;;;6.13;2.10;;;;;;;;;;5114078;28;20861;-76
2023/04/12 04:50:07;;;;;;;7.40;2.30;;;;;;;;;;5112708;28;20204;-77
2023/04/12 04:52:36;;;;;;;4.13;2.00;;;;;;;;;;5113653;28;20255;-77
2023/04/12 04:55:05;;;;;;;4.20;1.50;;;;;;;;;;5113153;28;20205;-78
2023/04/12 04:57:32;;;;;;;5.37;1.77;;;;;;;;;;5103056;28;20815;-78
2023/04/12 04:59:59;;;;;;;8.60;1.27;;;;;;;;;;5100889;28;20229;-77
2023/04/12 05:02:27;;;;;;;5.37;1.40;;;;;;;;;;5111019;28;20251;-77
2023/04/12 05:04:55;;;;;;;5.17;1.40;;;;;;;;;;5113238;28;20284;-78
2023/04/12 05:07:24;;;;;;;4.87;1.60;;;;;;;;;;5103572;28;20206;-77
2023/04/12 05:09:51;;;;;;;4.30;1.57;;;;;;;;;;5106369;28;20201;-77
2023/04/12 05:12:20;;;;;;;3.77;1.20;;;;;;;;;;5112883;28;20284;-76
2023/04/12 05:14:47;;;;;;;7.33;1.47;;;;;;;;;;5093204;28;20591;-77
2023/04/12 05:17:14;;;;;;;6.00;1.60;;;;;;;;;;5103727;28;20722;-77
2023/04/12 05:19:42;;;;;;;5.93;1.93;;;;;;;;;;5106868;28;20228;-76
2023/04/12 05:22:09;;;;;;;5.63;1.90;;;;;;;;;;5107168;28;20194;-77
2023/04/12 05:24:37;;;;;;;6.87;1.63;;;;;;;;;;5107596;28;20201;-77
2023/04/12 05:27:04;;;;;;;8.33;2.00;;;;;;;;;;5109774;28;20197;-77
2023/04/12 05:29:33;;;;;;;7.20;1.90;;;;;;;;;;5105917;28;20202;-77
2023/04/12 05:32:00;;;;;;;6.77;1.77;;;;;;;;;;5103549;28;20197;-78
2023/04/12 05:34:27;;;;;;;6.70;2.63;;;;;;;;;;5105146;28;20290;-77
2023/04/12 05:36:54;;;;;;;7.70;2.87;;;;;;;;;;5101526;28;20713;-79
2023/04/12 05:39:21;;;;;;;8.47;2.93;;;;;;;;;;5105549;28;20226;-78
2023/04/12 05:41:48;;;;;;;6.43;2.30;;;;;;;;;;5105808;28;20228;-76
2023/04/12 05:44:16;;;;;;;6.63;2.70;;;;;;;;;;5113237;27;20230;-76
2023/04/12 05:46:44;;;;;;;8.43;2.40;;;;;;;;;;5111539;28;20220;-77
2023/04/12 05:49:12;;;;;;;8.13;2.30;;;;;;;;;;5113087;28;20632;-77
2023/04/12 05:51:39;;;;;;;5.20;2.10;;;;;;;;;;5113643;28;20194;-78
2023/04/12 05:54:06;;;;;;;6.13;2.00;;;;;;;;;;5113140;28;20224;-78
2023/04/12 05:56:33;;;;;;;8.53;2.40;;;;;;;;;;5113579;28;20320;-78
2023/04/12 05:59:01;;;;;;;4.37;1.63;;;;;;;;;;5113181;28;20608;-77
2023/04/12 06:01:30;;;;;;;7.60;2.23;;;;;;;;;;5112932;28;20194;-77
2023/04/12 06:03:58;;;;;;;7.80;2.43;;;;;;;;;;5112866;28;20190;-77
2023/04/12 06:06:29;;;;;;;8.50;3.13;;;;;;;;;;5112907;28;20611;-77
2023/04/12 06:08:58;;;;;;;6.00;2.93;;;;;;;;;;5113233;28;20199;-77
2023/04/12 06:11:26;;;;;;;8.90;2.90;;;;;;;;;;5112606;28;20199;-77
2023/04/12 06:13:53;;;;;;;16.90;3.03;;;;;;;;;;5112910;28;20202;-76
2023/04/12 06:16:21;;;;;;;6.30;2.20;;;;;;;;;;5112808;28;20204;-77
2023/04/12 06:18:48;;;;;;;5.67;2.50;;;;;;;;;;5112749;28;20205;-77
2023/04/12 06:21:16;;;;;;;8.57;2.03;;;;;;;;;;5112996;28;20285;-77
2023/04/12 06:23:43;;;;;;;6.63;1.83;;;;;;;;;;5112385;28;20197;-77
2023/04/12 06:26:11;;;;;;;4.33;1.37;;;;;;;;;;5111921;28;20228;-77
2023/04/12 06:28:38;;;;;;;15.40;2.00;;;;;;;;;;5112560;28;20194;-77
2023/04/12 06:31:05;;;;;;;19.60;1.97;;;;;;;;;;5112756;28;20287;-77
2023/04/12 06:33:32;;;;;;;6.77;1.23;;;;;;;;;;5112534;28;20202;-78
2023/04/12 06:36:00;;;;;;;5.17;1.53;;;;;;;;;;5112306;28;20228;-76
2023/04/12 06:38:28;;;;;;;4.87;1.43;;;;;;;;;;5112353;28;20229;-77
2023/04/12 06:40:56;;;;;;;4.07;1.50;;;;;;;;;;5112099;28;20333;-77
2023/04/12 06:43:23;;;;;;;4.80;1.50;;;;;;;;;;5112448;28;20281;-77
2023/04/12 06:45:50;;;;;;;3.60;1.20;;;;;;;;;;5112308;28;20280;-76
2023/04/12 06:48:17;;;;;;;4.57;1.30;;;;;;;;;;5112414;28;20288;-78
2023/04/12 06:50:45;;;;;;;3.47;1.20;;;;;;;;;;5111798;28;20682;-77
2023/04/12 06:53:13;;;;;;;3.67;1.10;;;;;;;;;;5111964;28;20221;-77
2023/04/12 06:55:41;;;;;;;2.78;0.93;;;;;;;;;;5111809;28;20201;-77
2023/04/12 06:58:09;;;;;;;3.60;1.02;;;;;;;;;;5111894;28;20257;-78
2023/04/12 07:00:36;;;;;;;3.30;1.23;;;;;;;;;;5112415;28;20247;-78
2023/04/12 07:03:03;;;;;;;2.65;1.30;;;;;;;;;;5112086;28;20228;-77
2023/04/12 07:05:30;;;;;;;2.40;1.10;;;;;;;;;;5111968;28;20293;-77
2023/04/12 07:07:58;;;;;;;3.60;1.00;;;;;;;;;;5112361;28;20200;-77
2023/04/12 07:10:25;;;;;;;4.95;1.20;;;;;;;;;;5111801;28;20293;-77
2023/04/12 07:12:53;;;;;;;4.45;0.82;;;;;;;;;;5111720;28;20670;-77
2023/04/12 07:15:20;;;;;;;4.47;1.48;;;;;;;;;;5112466;28;20232;-77
2023/04/12 07:17:48;;;;;;;4.60;1.02;;;;;;;;;;5111803;28;20221;-77
2023/04/12 07:20:16;;;;;;;2.50;0.90;;;;;;;;;;5111687;28;20615;-77
2023/04/12 07:22:43;;;;;;;2.22;0.70;;;;;;;;;;5112143;28;20201;-77
2023/04/12 07:25:10;;;;;;;4.82;1.00;;;;;;;;;;5111256;28;20238;-77
2023/04/12 07:27:37;;;;;;;3.03;1.20;;;;;;;;;;5111650;28;20284;-77
2023/04/12 07:30:07;;;;;;;2.63;0.98;;;;;;;;;;5111702;28;20288;-77
2023/04/12 07:32:34;;;;;;;5.10;1.27;;;;;;;;;;5111829;28;20220;-77
2023/04/12 07:35:01;;;;;;;5.47;1.30;;;;;;;;;;5111983;28;20280;-77
2023/04/12 07:37:28;;;;;;;2.22;0.85;;;;;;;;;;5115158;28;20332;-77
2023/04/12 07:39:55;;;;;;;3.63;1.05;;;;;;;;;;5115421;28;20200;-77
2023/04/12 07:42:22;;;;;;;5.47;1.33;;;;;;;;;;5116019;28;20292;-77
2023/04/12 07:44:50;;;;;;;5.73;1.07;;;;;;;;;;5115841;28;20240;-77
2023/04/12 07:47:18;;;;;;;3.43;1.03;;;;;;;;;;5116045;28;20285;-77
2023/04/12 07:49:45;;;;;;;3.10;0.93;;;;;;;;;;5116326;28;20225;-78
2023/04/12 07:52:13;;;;;;;2.90;0.90;;;;;;;;;;5115798;28;20284;-77
2023/04/12 07:54:41;;;;;;;2.97;1.00;;;;;;;;;;5115097;28;20658;-78
2023/04/12 07:57:08;;;;;;;3.03;1.00;;;;;;;;;;5115390;28;20687;-77
2023/04/12 07:59:36;;;;;;;3.53;0.80;;;;;;;;;;5116032;28;20574;-77
2023/04/12 08:02:04;;;;;;;4.90;1.20;;;;;;;;;;5115438;28;20278;-77
2023/04/12 08:04:33;;;;;;;3.27;1.10;;;;;;;;;;5115453;28;20200;-77
2023/04/12 08:07:00;;;;;;;3.80;1.27;;;;;;;;;;5115542;28;20322;-77
2023/04/12 08:09:27;;;;;;;5.43;1.10;;;;;;;;;;5114820;28;20288;-77
2023/04/12 08:11:55;;;;;;;6.00;1.10;;;;;;;;;;5115660;28;20280;-77
2023/04/12 08:14:22;;;;;;;6.67;1.30;;;;;;;;;;5115600;28;20201;-78
2023/04/12 08:16:50;;;;;;;4.87;1.40;;;;;;;;;;5115379;28;20218;-77
2023/04/12 08:19:17;;;;;;;2.90;1.10;;;;;;;;;;5114646;28;20225;-78
2023/04/12 08:21:45;;;;;;;4.77;1.17;;;;;;;;;;5115266;28;20209;-77
2023/04/12 08:24:12;;;;;;;3.47;1.10;;;;;;;;;;5115249;28;20284;-78
2023/04/12 08:26:40;;;;;;;4.63;1.00;;;;;;;;;;5114920;28;20288;-78
2023/04/12 08:29:07;;;;;;;4.70;1.13;;;;;;;;;;5115302;28;20201;-77
2023/04/12 08:31:34;;;;;;;4.93;1.10;;;;;;;;;;5115378;28;20200;-77
2023/04/12 08:34:01;;;;;;;4.43;1.07;;;;;;;;;;5115057;28;20229;-78
2023/04/12 08:36:28;;;;;;;5.00;0.80;;;;;;;;;;5114703;28;20280;-77
2023/04/12 08:39:00;;;;;;;2.07;0.80;;;;;;;;;;5114584;28;20705;-77
2023/04/12 08:41:28;;;;;;;4.43;0.93;;;;;;;;;;5114697;28;20233;-76
2023/04/12 08:43:55;;;;;;;2.87;0.83;;;;;;;;;;5114892;28;20222;-77
2023/04/12 08:46:22;;;;;;;4.03;0.80;;;;;;;;;;5114550;28;20281;-76
2023/04/12 08:48:52;;;;;;;3.37;0.90;;;;;;;;;;5114590;28;20241;-77
2023/04/12 08:51:20;;;;;;;3.80;1.23;;;;;;;;;;5114477;28;20198;-77
2023/04/12 08:53:48;;;;;;;4.47;1.17;;;;;;;;;;5114196;28;20271;-77
2023/04/12 08:56:16;;;;;;;5.43;1.40;;;;;;;;;;5114403;28;20285;-77
2023/04/12 08:58:47;;;;;;;7.27;1.20;;;;;;;;;;5113976;28;20253;-77
2023/04/12 09:01:15;;;;;;;3.70;1.23;;;;;;;;;;5114360;28;20281;-77
2023/04/12 09:03:42;;;;;;;4.13;1.10;;;;;;;;;;5114639;28;20190;-76
2023/04/12 09:06:10;;;;;;;3.30;1.00;;;;;;;;;;5114107;28;20304;-77
2023/04/12 09:08:37;;;;;;;2.30;0.73;;;;;;;;;;5114191;28;20248;-76
2023/04/12 09:11:21;;;;;;;2.63;0.80;;;;;;;;;;5114182;28;20662;-77
2023/04/12 09:13:50;;;;;;;2.23;0.90;;;;;;;;;;5113883;28;20223;-76
2023/04/12 09:16:20;;;;;;;3.63;0.80;;;;;;;;;;5114125;28;20204;-77
2023/04/12 09:18:50;;;;;;;2.97;0.80;;;;;;;;;;5113888;28;20737;-78
2023/04/12 09:21:19;;;;;;;2.30;0.73;;;;;;;;;;5114003;28;20224;-78
2023/04/12 09:24:02;;;;;;;3.37;0.80;;;;;;;;;;5114086;28;20837;-78
2023/04/12 09:26:30;;;;;;;4.43;1.10;;;;;;;;;;5113820;28;20288;-78
2023/04/12 09:28:58;;;;;;;1.87;0.80;;;;;;;;;;5114119;28;20199;-77
2023/04/12 09:31:26;;;;;;;4.05;0.90;;;;;;;;;;5113714;28;20289;-78
2023/04/12 09:33:53;;;;;;;2.85;0.98;;;;;;;;;;5113862;28;20194;-78
2023/04/12 09:36:20;;;;;;;2.83;1.08;;;;;;;;;;5113470;28;20857;-79
2023/04/12 09:38:59;;;;;;;2.95;0.95;;;;;;;;;;5113942;28;20229;-77
2023/04/12 09:41:29;;;;;;;2.50;0.75;;;;;;;;;;5113428;28;20252;-78
2023/04/12 09:43:56;;;;;;;1.90;0.60;;;;;;;;;;5113838;28;20213;-78
2023/04/12 09:46:24;;;;;;;1.83;0.80;;;;;;;;;;5113635;28;20200;-78
2023/04/12 09:48:52;;;;;;;3.13;1.10;;;;;;;;;;5112926;28;20232;-78
2023/04/12 09:51:27;;;;;;;3.22;1.10;;;;;;;;;;5113905;28;20193;-78
2023/04/12 09:53:58;;;;;;;3.25;1.05;;;;;;;;;;5113623;28;20201;-78
2023/04/12 09:56:25;;;;;;;4.13;0.98;;;;;;;;;;5113710;28;20189;-78
2023/04/12 09:58:53;;;;;;;2.05;0.73;;;;;;;;;;5112685;28;20320;-78
2023/04/12 10:01:21;;;;;;;4.32;1.10;;;;;;;;;;5113020;28;20280;-77
2023/04/12 10:03:50;;;;;;;4.57;0.85;;;;;;;;;;5112192;28;20225;-78
2023/04/12 10:06:19;;;;;;;2.45;0.80;;;;;;;;;;5113005;28;20206;-79
2023/04/12 10:08:46;;;;;;;2.80;0.90;;;;;;;;;;5112810;28;20289;-77
2023/04/12 10:11:14;;;;;;;2.47;0.80;;;;;;;;;;5113240;28;20194;-77
2023/04/12 10:13:43;;;;;;;3.05;0.85;;;;;;;;;;5113186;28;20202;-77
2023/04/12 10:16:10;;;;;;;2.55;0.80;;;;;;;;;;5113143;28;20213;-78
2023/04/12 10:18:39;;;;;;;3.22;0.80;;;;;;;;;;5112443;28;20229;-78
2023/04/12 10:21:08;;;;;;;4.57;1.10;;;;;;;;;;5113328;28;20197;-78
2023/04/12 10:23:35;;;;;;;3.65;0.93;;;;;;;;;;5112712;28;20612;-78
2023/04/12 10:26:04;;;;;;;4.78;0.90;;;;;;;;;;5112864;28;20226;-79
2023/04/12 10:28:31;;;;;;;3.17;0.88;;;;;;;;;;5112731;28;20280;-77
2023/04/12 10:31:00;;;;;;;5.72;1.02;;;;;;;;;;5112424;28;20292;-78
2023/04/12 10:33:27;;;;;;;3.13;1.00;;;;;;;;;;5112299;28;20202;-78
2023/04/12 10:36:01;;;;;;;8.88;1.10;;;;;;;;;;5112502;28;20285;-79
2023/04/12 10:38:36;;;;;;;3.75;0.90;;;;;;;;;;5112069;28;20290;-78
2023/04/12 10:41:24;;;;;;;5.50;1.20;;;;;;;;;;5112361;28;20229;-79
2023/04/12 10:43:51;;;;;;;3.45;0.90;;;;;;;;;;5106055;28;20202;-77
2023/04/12 10:46:37;;;;;;;7.40;1.20;;;;;;;;;;5112495;28;20194;-79
2023/04/12 10:49:08;;;;;;;5.03;1.20;;;;;;;;;;5104680;28;20646;-78
2023/04/12 10:51:37;;;;;;;3.92;1.08;;;;;;;;;;5108562;27;20251;-78
2023/04/12 10:54:19;;;;;;;4.00;1.00;;;;;;;;;;5106546;28;20296;-80
2023/04/12 10:56:48;;;;;;;2.35;0.90;;;;;;;;;;5111844;28;20194;-78
2023/04/12 10:59:15;;;;;;;5.18;1.27;;;;;;;;;;5112175;28;20336;-79
2023/04/12 11:01:43;;;;;;;5.30;1.40;;;;;;;;;;5111318;28;20193;-79
2023/04/12 11:04:17;;;;;;;4.72;1.20;;;;;;;;;;5111162;28;20198;-78
2023/04/12 11:06:48;;;;;;;4.38;1.10;;;;;;;;;;5112193;27;20661;-78
2023/04/12 11:09:22;;;;;;;5.38;1.00;;;;;;;;;;5111706;28;20201;-77
2023/04/12 11:11:55;;;;;;;4.05;1.10;;;;;;;;;;5109004;28;20281;-77
2023/04/12 11:14:26;;;;;;;6.93;1.58;;;;;;;;;;5105993;28;20198;-78
2023/04/12 11:17:19;;;;;;;4.80;1.30;;;;;;;;;;5092652;28;20666;-78
2023/04/12 11:19:47;;;;;;;3.80;1.00;;;;;;;;;;5105789;28;20313;-77
2023/04/12 11:22:15;;;;;;;5.27;1.00;;;;;;;;;;5108878;28;20285;-77
2023/04/12 11:24:44;;;;;;;3.63;1.05;;;;;;;;;;5110997;28;20322;-79
2023/04/12 11:27:12;;;;;;;3.55;0.90;;;;;;;;;;5103924;28;20206;-77
2023/04/12 11:29:40;;;;;;;6.95;1.38;;;;;;;;;;5107960;28;20314;-78
2023/04/12 11:32:11;;;;;;;5.45;1.20;;;;;;;;;;5108672;28;20226;-78
2023/04/12 11:34:38;;;;;;;4.13;1.20;;;;;;;;;;5109931;28;20685;-78
2023/04/12 11:37:07;;;;;;;3.17;1.15;;;;;;;;;;5103345;28;20281;-78
2023/04/12 11:39:35;;;;;;;2.88;1.10;;;;;;;;;;5111224;28;20311;-77
2023/04/12 11:42:03;;;;;;;3.17;1.15;;;;;;;;;;5108390;28;20375;-77
2023/04/12 11:44:33;;;;;;;3.35;0.90;;;;;;;;;;5109028;28;20212;-77
2023/04/12 11:47:01;;;;;;;7.18;1.20;;;;;;;;;;5109216;28;20204;-77
2023/04/12 11:49:28;;;;;;;3.17;0.90;;;;;;;;;;5109393;28;20207;-78
2023/04/12 11:52:03;;;;;;;6.33;1.20;;;;;;;;;;5111655;28;20239;-78
2023/04/12 11:54:30;;;;;;;5.27;1.03;;;;;;;;;;5107923;28;20276;-78
2023/04/12 11:56:59;;;;;;;3.57;0.90;;;;;;;;;;5110307;28;20205;-78
2023/04/12 11:59:33;;;;;;;2.60;0.80;;;;;;;;;;5099970;28;20233;-77
2023/04/12 12:02:01;;;;;;;3.77;0.90;;;;;;;;;;5109567;28;20224;-77
2023/04/12 12:04:28;;;;;;;2.80;0.80;;;;;;;;;;5097258;28;20203;-78
2023/04/12 12:06:56;;;;;;;4.80;0.80;;;;;;;;;;5108168;28;20202;-76
2023/04/12 12:09:24;;;;;;;2.90;0.80;;;;;;;;;;5109752;28;20208;-78
2023/04/12 12:11:51;;;;;;;4.70;1.20;;;;;;;;;;5110822;28;20260;-78
2023/04/12 12:14:19;;;;;;;4.33;1.10;;;;;;;;;;5108357;28;20190;-78
2023/04/12 12:16:55;;;;;;;5.57;1.00;;;;;;;;;;5108300;28;20692;-78
2023/04/12 12:19:29;;;;;;;2.85;0.77;;;;;;;;;;5111088;28;20274;-78
2023/04/12 12:22:06;;;;;;;4.30;1.10;;;;;;;;;;5111712;28;20665;-79
2023/04/12 12:24:33;;;;;;;5.43;1.13;;;;;;;;;;5115210;28;20309;-78
2023/04/12 12:27:02;;;;;;;5.35;1.13;;;;;;;;;;5115175;28;20194;-79
2023/04/12 12:29:35;;;;;;;4.88;1.17;;;;;;;;;;5114219;28;20201;-80
2023/04/12 12:32:05;;;;;;;4.15;1.20;;;;;;;;;;5114697;28;20198;-79
2023/04/12 12:34:34;;;;;;;8.75;1.58;;;;;;;;;;5114473;28;20194;-79
2023/04/12 12:37:01;;;;;;;5.22;1.10;;;;;;;;;;5115265;27;20610;-80
2023/04/12 12:39:29;;;;;;;4.97;0.98;;;;;;;;;;5113080;28;20225;-80
2023/04/12 12:41:57;;;;;;;6.10;1.40;;;;;;;;;;5110960;28;20221;-78
2023/04/12 12:44:24;;;;;;;5.03;1.40;;;;;;;;;;5114402;28;20201;-79
2023/04/12 12:46:51;;;;;;;6.33;1.07;;;;;;;;;;5116744;27;20263;-79
2023/04/12 12:49:20;;;;;;;5.15;1.00;;;;;;;;;;5114249;27;20198;-79
2023/04/12 12:51:47;;;;;;;3.22;1.00;;;;;;;;;;5112752;28;20297;-78
2023/04/12 12:54:14;;;;;;;4.15;0.88;;;;;;;;;;5112449;28;20277;-79
2023/04/12 12:56:41;;;;;;;2.00;0.70;;;;;;;;;;5113808;28;20281;-79
2023/04/12 12:59:08;;;;;;;3.60;0.85;;;;;;;;;;5113640;28;20229;-80
2023/04/12 13:01:36;;;;;;;3.53;1.10;;;;;;;;;;5113764;28;20682;-80
2023/04/12 13:04:03;;;;;;;2.42;0.70;;;;;;;;;;5110056;28;20217;-81
2023/04/12 13:06:31;;;;;;;3.08;0.80;;;;;;;;;;5112640;28;20197;-78
2023/04/12 13:08:59;;;;;;;1.48;0.32;;;;;;;;;;5114011;28;20280;-79
2023/04/12 13:11:26;;;;;;;3.35;0.63;;;;;;;;;;5112707;27;20305;-78
2023/04/12 13:13:53;;;;;;;2.67;0.57;;;;;;;;;;5110261;27;20277;-78
2023/04/12 13:16:20;;;;;;;3.65;0.85;;;;;;;;;;5117771;27;20225;-77
2023/04/12 13:18:47;;;;;;;5.53;1.02;;;;;;;;;;5113390;28;20292;-78
2023/04/12 13:21:15;;;;;;;3.42;0.80;;;;;;;;;;5113159;28;20213;-78
2023/04/12 13:23:43;;;;;;;3.97;0.77;;;;;;;;;;5113639;28;20213;-79
2023/04/12 13:26:10;;;;;;;2.88;0.70;;;;;;;;;;5113173;28;20319;-78
2023/04/12 13:28:37;;;;;;;5.32;0.95;;;;;;;;;;5112936;28;20656;-79
2023/04/12 13:31:05;;;;;;;3.22;0.88;;;;;;;;;;5110425;28;20639;-78
2023/04/12 13:33:32;;;;;;;5.50;0.85;;;;;;;;;;5111689;28;20281;-80
2023/04/12 13:35:59;;;;;;;4.20;0.82;;;;;;;;;;5113781;28;20225;-79
2023/04/12 13:38:26;;;;;;;3.72;1.35;;;;;;;;;;5113671;28;20229;-79
2023/04/12 13:40:55;;;;;;;3.42;0.70;;;;;;;;;;5112962;28;20408;-80
2023/04/12 13:43:23;;;;;;;4.07;1.20;;;;;;;;;;5113718;28;20197;-79
2023/04/12 13:45:50;;;;;;;4.15;0.80;;;;;;;;;;5113740;28;20271;-78
2023/04/12 13:48:18;;;;;;;6.03;0.90;;;;;;;;;;5113758;28;20205;-80
2023/04/12 13:50:45;;;;;;;3.92;0.88;;;;;;;;;;5113361;28;20617;-79
2023/04/12 13:53:12;;;;;;;3.20;0.90;;;;;;;;;;5113891;28;20202;-78
2023/04/12 13:55:40;;;;;;;3.15;0.80;;;;;;;;;;5113305;28;20201;-77
2023/04/12 13:58:08;;;;;;;1.90;0.50;;;;;;;;;;5113891;28;20237;-80
2023/04/12 14:00:36;;;;;;;4.33;1.00;;;;;;;;;;5113016;28;20225;-79
2023/04/12 14:03:03;;;;;;;3.13;0.90;;;;;;;;;;5113301;28;20230;-79
2023/04/12 14:05:30;;;;;;;3.87;0.80;;;;;;;;;;5113037;28;20725;-78
2023/04/12 14:07:57;;;;;;;4.47;0.80;;;;;;;;;;5113385;28;20217;-78
2023/04/12 14:10:24;;;;;;;4.73;1.20;;;;;;;;;;5113102;28;20278;-79
2023/04/12 14:12:51;;;;;;;3.67;0.80;;;;;;;;;;5113044;28;20290;-79
2023/04/12 14:15:20;;;;;;;4.20;0.73;;;;;;;;;;5112896;28;20225;-78
2023/04/12 14:17:47;;;;;;;4.80;0.83;;;;;;;;;;5113184;28;20544;-78
2023/04/12 14:20:14;;;;;;;2.93;1.03;;;;;;;;;;5112814;28;20713;-78
2023/04/12 14:22:42;;;;;;;5.00;0.80;;;;;;;;;;5112612;28;20638;-77
2023/04/12 14:25:10;;;;;;;4.23;0.80;;;;;;;;;;5113127;28;20198;-79
2023/04/12 14:27:37;;;;;;;3.40;0.70;;;;;;;;;;5112752;28;20193;-79
2023/04/12 14:30:06;;;;;;;3.30;0.60;;;;;;;;;;5112171;28;20201;-79
2023/04/12 14:32:35;;;;;;;2.70;0.93;;;;;;;;;;5112586;28;20194;-78
2023/04/12 14:35:03;;;;;;;4.17;0.97;;;;;;;;;;5112642;28;20757;-76
2023/04/12 14:37:30;;;;;;;1.70;0.60;;;;;;;;;;5106791;28;20248;-76
2023/04/12 14:39:57;;;;;;;2.30;0.70;;;;;;;;;;5098755;28;20249;-78
2023/04/12 14:42:24;;;;;;;4.00;0.80;;;;;;;;;;5112152;28;20217;-78
2023/04/12 14:44:52;;;;;;;2.23;0.70;;;;;;;;;;5107890;27;20198;-78
2023/04/12 14:47:19;;;;;;;3.80;0.80;;;;;;;;;;5106586;28;20198;-78
2023/04/12 14:49:47;;;;;;;3.80;0.80;;;;;;;;;;5106858;28;20200;-78